Time;durP1;ratioP1;P1;durP2;ratioP2;P2;SDS_P1;SDS_P2;PMS_P1;PMS_P2;Temp;Humidity;BMP_temperature;BMP_pressure;BME280_temperature;BME280_humidity;BME280_pressure;Samples;Min_cycle;Max_cycle;Signal;HPM_P1;HPM_P2
2023/09/02 00:00:27;;;;;;;9.00;5.97;;;16.10;74.20;;;;;;5100527;27;20129;-75
2023/09/02 00:02:54;;;;;;;7.77;5.40;;;16.10;74.10;;;;;;5135968;27;20117;-77
2023/09/02 00:05:21;;;;;;;7.53;5.43;;;16.00;74.30;;;;;;5108861;27;20048;-76
2023/09/02 00:07:48;;;;;;;9.15;5.70;;;16.00;74.30;;;;;;5101371;27;20056;-77
2023/09/02 00:10:15;;;;;;;7.13;5.10;;;16.00;74.30;;;;;;5084127;28;20143;-76
2023/09/02 00:12:43;;;;;;;7.40;5.03;;;16.00;74.40;;;;;;5094450;27;20164;-76
2023/09/02 00:15:11;;;;;;;6.63;4.80;;;16.00;74.50;;;;;;5107937;27;20051;-76
2023/09/02 00:17:38;;;;;;;6.68;4.60;;;16.00;74.60;;;;;;5106011;27;20044;-76
2023/09/02 00:20:07;;;;;;;7.28;4.88;;;16.00;74.70;;;;;;5099321;27;20083;-76
2023/09/02 00:22:34;;;;;;;6.97;5.03;;;16.00;74.80;;;;;;5120384;27;20052;-76
2023/09/02 00:25:01;;;;;;;7.55;5.10;;;15.90;74.90;;;;;;5108776;27;20052;-76
2023/09/02 00:27:28;;;;;;;9.07;5.40;;;15.90;75.00;;;;;;5123621;27;20696;-76
2023/09/02 00:29:56;;;;;;;9.98;5.93;;;15.90;75.00;;;;;;5082262;28;20068;-76
2023/09/02 00:32:23;;;;;;;10.43;5.30;;;15.90;75.10;;;;;;5108926;28;20486;-76
2023/09/02 00:34:50;;;;;;;8.20;5.32;;;15.90;75.10;;;;;;5097769;27;20052;-76
2023/09/02 00:37:17;;;;;;;8.00;5.45;;;15.90;75.20;;;;;;5130010;27;20710;-76
2023/09/02 00:39:44;;;;;;;7.97;4.97;;;15.90;75.20;;;;;;5097661;27;20040;-76
2023/09/02 00:42:13;;;;;;;10.55;5.65;;;15.90;75.10;;;;;;5131063;27;20530;-76
2023/09/02 00:44:41;;;;;;;9.02;5.35;;;15.80;75.20;;;;;;5073464;27;20250;-76
2023/09/02 00:47:09;;;;;;;7.22;4.57;;;15.80;75.30;;;;;;5123100;27;20106;-77
2023/09/02 00:49:36;;;;;;;8.55;4.68;;;15.80;75.30;;;;;;5141518;27;20139;-77
2023/09/02 00:52:03;;;;;;;6.47;4.83;;;15.80;75.30;;;;;;5093319;27;20052;-77
2023/09/02 00:54:31;;;;;;;8.32;4.95;;;15.80;75.20;;;;;;5125043;27;20139;-76
2023/09/02 00:56:59;;;;;;;8.68;5.05;;;15.80;75.30;;;;;;5091950;28;20052;-76
2023/09/02 00:59:26;;;;;;;7.28;5.18;;;15.80;75.60;;;;;;5091938;28;20110;-76
2023/09/02 01:01:56;;;;;;;8.00;5.20;;;15.80;75.50;;;;;;5091196;28;20068;-76
2023/09/02 01:04:24;;;;;;;8.47;5.40;;;15.80;75.80;;;;;;5075024;27;20605;-76
2023/09/02 01:06:51;;;;;;;7.85;5.00;;;15.80;75.70;;;;;;5118201;27;20135;-76
2023/09/02 01:09:19;;;;;;;7.97;4.97;;;15.80;75.70;;;;;;5097729;27;20052;-75
2023/09/02 01:11:46;;;;;;;7.43;5.13;;;15.80;75.80;;;;;;5121743;27;20044;-76
2023/09/02 01:14:14;;;;;;;7.22;5.28;;;15.80;75.70;;;;;;5072426;27;20123;-76
2023/09/02 01:16:40;;;;;;;7.77;5.43;;;15.80;75.60;;;;;;5096350;27;20607;-76
2023/09/02 01:19:11;;;;;;;8.20;5.28;;;15.80;75.80;;;;;;5102460;27;20048;-76
2023/09/02 01:22:11;;;;;;;8.25;5.40;;;15.80;75.90;;;;;;5104380;27;20821;-76
2023/09/02 01:25:06;;;;;;;8.50;5.85;;;15.80;75.50;;;;;;5124278;27;20044;-77
2023/09/02 01:27:38;;;;;;;8.23;5.45;;;15.80;75.80;;;;;;5103123;27;20063;-76
2023/09/02 01:30:10;;;;;;;7.33;5.07;;;15.80;75.70;;;;;;5081582;28;20052;-77
2023/09/02 01:32:42;;;;;;;8.13;5.38;;;15.80;76.00;;;;;;5106621;27;20056;-76
2023/09/02 01:35:10;;;;;;;7.60;5.60;;;15.80;76.10;;;;;;5097376;27;20052;-76
2023/09/02 01:37:42;;;;;;;10.13;5.82;;;15.70;76.20;;;;;;5091977;27;20541;-76
2023/09/02 01:40:15;;;;;;;9.10;6.05;;;15.80;76.30;;;;;;5104333;27;20459;-77
2023/09/02 01:42:44;;;;;;;9.97;6.23;;;15.70;76.40;;;;;;5107831;28;20054;-77
2023/09/02 01:45:13;;;;;;;10.68;6.97;;;15.70;76.50;;;;;;5089975;27;20147;-76
2023/09/02 01:47:40;;;;;;;10.27;6.38;;;15.60;76.20;;;;;;5099985;27;20052;-76
2023/09/02 01:50:10;;;;;;;9.10;6.47;;;15.70;76.60;;;;;;5121923;27;20338;-76
2023/09/02 01:52:38;;;;;;;11.27;7.38;;;15.60;76.50;;;;;;5077934;28;20045;-76
2023/09/02 01:55:06;;;;;;;10.40;6.53;;;15.60;76.50;;;;;;5087959;27;20118;-76
2023/09/02 01:57:34;;;;;;;9.70;6.45;;;15.60;76.40;;;;;;5116758;27;20052;-77
2023/09/02 02:00:04;;;;;;;8.68;6.05;;;15.60;76.50;;;;;;5087839;28;20052;-76
2023/09/02 02:02:39;;;;;;;9.18;6.40;;;15.60;76.50;;;;;;5120686;27;20059;-75
2023/09/02 02:05:10;;;;;;;8.68;5.93;;;15.60;76.70;;;;;;5071031;27;20062;-76
2023/09/02 02:07:42;;;;;;;9.80;6.40;;;15.60;76.80;;;;;;5102289;27;20585;-76
2023/09/02 02:10:13;;;;;;;10.00;6.85;;;15.60;76.60;;;;;;5098692;27;20070;-77
2023/09/02 02:12:42;;;;;;;10.43;6.53;;;15.60;76.70;;;;;;5123938;27;20153;-76
2023/09/02 02:15:11;;;;;;;8.65;6.22;;;15.60;76.70;;;;;;5073894;27;20510;-76
2023/09/02 02:17:38;;;;;;;9.65;6.40;;;15.60;76.80;;;;;;5090609;28;20059;-76
2023/09/02 02:20:07;;;;;;;8.93;6.13;;;15.60;76.80;;;;;;5076573;28;20037;-76
2023/09/02 02:22:34;;;;;;;9.38;6.57;;;15.60;76.70;;;;;;5100734;27;20082;-75
2023/09/02 02:25:01;;;;;;;11.23;7.60;;;15.60;76.60;;;;;;5121273;27;20047;-76
2023/09/02 02:27:28;;;;;;;11.40;8.07;;;15.60;76.30;;;;;;5082770;28;20612;-76
2023/09/02 02:29:57;;;;;;;13.13;8.45;;;15.60;76.30;;;;;;5111031;27;20049;-76
2023/09/02 02:32:25;;;;;;;10.77;7.73;;;15.60;76.80;;;;;;5132916;27;20059;-76
2023/09/02 02:34:54;;;;;;;11.68;7.18;;;15.60;76.80;;;;;;5089795;27;20652;-76
2023/09/02 02:37:20;;;;;;;10.63;7.57;;;15.60;76.60;;;;;;5086625;27;20544;-76
2023/09/02 02:39:48;;;;;;;10.65;7.32;;;15.60;76.70;;;;;;5100521;27;20080;-76
2023/09/02 02:42:15;;;;;;;11.13;7.10;;;15.60;76.50;;;;;;5098588;27;20058;-76
2023/09/02 02:44:42;;;;;;;10.60;6.90;;;15.60;76.30;;;;;;5103217;27;20045;-76
2023/09/02 02:47:09;;;;;;;10.52;7.05;;;15.60;76.40;;;;;;5079351;28;20136;-77
2023/09/02 02:49:37;;;;;;;12.77;7.43;;;15.60;76.70;;;;;;5115675;27;20809;-76
2023/09/02 02:52:04;;;;;;;10.20;7.00;;;15.60;76.90;;;;;;5141489;27;20117;-76
2023/09/02 02:54:31;;;;;;;9.45;6.70;;;15.60;77.10;;;;;;5139717;27;20052;-76
2023/09/02 02:57:00;;;;;;;11.67;7.37;;;15.50;77.20;;;;;;5131129;27;20157;-76
2023/09/02 02:59:27;;;;;;;9.18;6.60;;;15.50;76.90;;;;;;5091291;27;20076;-75
2023/09/02 03:01:54;;;;;;;10.82;7.18;;;15.50;77.00;;;;;;5089550;27;20540;-76
2023/09/02 03:04:21;;;;;;;10.40;7.10;;;15.50;76.90;;;;;;5088996;28;20067;-76
2023/09/02 03:06:49;;;;;;;10.50;6.93;;;15.50;77.00;;;;;;5086244;28;20387;-76
2023/09/02 03:09:16;;;;;;;10.27;7.33;;;15.50;77.20;;;;;;5114683;27;20048;-76
2023/09/02 03:11:43;;;;;;;11.50;7.90;;;15.50;77.30;;;;;;5086427;27;20052;-76
2023/09/02 03:14:11;;;;;;;12.38;8.50;;;15.50;77.40;;;;;;5105975;27;20059;-76
2023/09/02 03:16:38;;;;;;;12.82;8.15;;;15.40;77.50;;;;;;5086886;28;20076;-75
2023/09/02 03:19:05;;;;;;;13.05;8.40;;;15.40;77.50;;;;;;5103965;27;20474;-76
2023/09/02 03:21:33;;;;;;;13.27;9.37;;;15.40;77.50;;;;;;5076353;27;20040;-76
2023/09/02 03:24:01;;;;;;;13.23;8.90;;;15.40;77.50;;;;;;5104782;27;20049;-76
2023/09/02 03:26:28;;;;;;;13.43;9.35;;;15.40;77.60;;;;;;5086765;28;20076;-76
2023/09/02 03:28:56;;;;;;;11.57;8.27;;;15.40;77.70;;;;;;5089607;28;20094;-76
2023/09/02 03:31:25;;;;;;;12.93;9.07;;;15.40;77.80;;;;;;5085094;27;20605;-77
2023/09/02 03:33:54;;;;;;;11.83;8.70;;;15.40;77.80;;;;;;5099999;27;20130;-76
2023/09/02 03:36:21;;;;;;;13.70;9.40;;;15.30;77.70;;;;;;5086246;28;20119;-76
2023/09/02 03:38:48;;;;;;;12.65;9.25;;;15.30;77.80;;;;;;5115283;27;20044;-75
2023/09/02 03:41:18;;;;;;;13.25;9.43;;;15.30;77.90;;;;;;5088893;27;20048;-76
2023/09/02 03:43:45;;;;;;;14.07;9.88;;;15.30;77.90;;;;;;5121504;27;20514;-75
2023/09/02 03:46:13;;;;;;;13.73;9.50;;;15.30;77.80;;;;;;5089928;28;20052;-76
2023/09/02 03:48:41;;;;;;;12.77;9.77;;;15.30;77.80;;;;;;5072987;28;20048;-77
2023/09/02 03:51:12;;;;;;;13.13;9.52;;;15.30;78.00;;;;;;5085819;27;20098;-76
2023/09/02 03:53:41;;;;;;;13.27;9.45;;;15.30;78.10;;;;;;5111892;27;20055;-76
2023/09/02 03:56:10;;;;;;;13.77;10.38;;;15.30;77.80;;;;;;5088087;28;20552;-76
2023/09/02 03:58:39;;;;;;;14.67;10.40;;;15.30;77.90;;;;;;5105720;27;20348;-76
2023/09/02 04:01:06;;;;;;;13.93;10.38;;;15.30;78.10;;;;;;5106468;27;20063;-75
2023/09/02 04:03:35;;;;;;;13.30;9.85;;;15.30;78.10;;;;;;5106532;28;20048;-76
2023/09/02 04:06:03;;;;;;;14.55;10.20;;;15.30;78.30;;;;;;5074956;28;20055;-76
2023/09/02 04:08:33;;;;;;;14.13;10.40;;;15.30;78.50;;;;;;5102927;27;20584;-76
2023/09/02 04:11:02;;;;;;;13.57;9.93;;;15.30;78.60;;;;;;5110816;27;20144;-76
2023/09/02 04:13:30;;;;;;;15.88;10.13;;;15.30;78.60;;;;;;5085928;27;20154;-77
2023/09/02 04:16:02;;;;;;;13.35;9.88;;;15.30;78.50;;;;;;5091320;28;20517;-75
2023/09/02 04:18:31;;;;;;;14.50;10.57;;;15.30;78.40;;;;;;5088585;28;20053;-76
2023/09/02 04:21:00;;;;;;;15.05;9.68;;;15.30;78.30;;;;;;5118014;27;20048;-77
2023/09/02 04:23:27;;;;;;;13.27;9.67;;;15.30;78.30;;;;;;5084571;28;20066;-76
2023/09/02 04:25:56;;;;;;;15.13;10.07;;;15.30;78.20;;;;;;5109651;27;20107;-76
2023/09/02 04:28:24;;;;;;;14.30;10.13;;;15.30;78.20;;;;;;5107197;27;20044;-76
2023/09/02 04:30:56;;;;;;;14.40;10.68;;;15.30;78.50;;;;;;5088700;28;20135;-76
2023/09/02 04:33:24;;;;;;;16.00;10.85;;;15.30;78.50;;;;;;5089072;28;20491;-76
2023/09/02 04:35:53;;;;;;;16.37;11.07;;;15.30;78.70;;;;;;5092098;28;20044;-76
2023/09/02 04:38:20;;;;;;;14.70;10.65;;;15.30;78.90;;;;;;5087979;28;20063;-76
2023/09/02 04:40:50;;;;;;;15.00;10.93;;;15.30;78.90;;;;;;5105090;27;20048;-76
2023/09/02 04:43:18;;;;;;;15.02;10.95;;;15.30;78.90;;;;;;5105888;27;20607;-77
2023/09/02 04:45:47;;;;;;;14.23;10.63;;;15.30;79.00;;;;;;5083134;27;20048;-77
2023/09/02 04:48:15;;;;;;;14.10;10.30;;;15.30;79.10;;;;;;5091590;28;20055;-76
2023/09/02 04:50:53;;;;;;;15.13;10.18;;;15.30;79.30;;;;;;5091538;28;20485;-76
2023/09/02 04:53:22;;;;;;;13.65;10.10;;;15.30;79.40;;;;;;5078740;28;20560;-76
2023/09/02 04:55:50;;;;;;;14.43;10.00;;;15.30;79.40;;;;;;5100474;27;20052;-76
2023/09/02 04:58:18;;;;;;;13.75;10.13;;;15.30;79.10;;;;;;5100073;27;20671;-76
2023/09/02 05:00:45;;;;;;;16.97;11.27;;;15.30;78.70;;;;;;5113906;27;20494;-76
2023/09/02 05:03:13;;;;;;;16.02;10.75;;;15.30;78.90;;;;;;5088948;28;20559;-76
2023/09/02 05:05:41;;;;;;;16.77;11.18;;;15.30;79.20;;;;;;5085503;28;20056;-76
2023/09/02 05:08:13;;;;;;;15.68;11.65;;;15.30;79.40;;;;;;5091872;27;20052;-76
2023/09/02 05:10:40;;;;;;;15.20;10.55;;;15.30;79.40;;;;;;5095374;27;20054;-77
2023/09/02 05:13:10;;;;;;;14.83;10.83;;;15.30;79.50;;;;;;5094732;28;20058;-77
2023/09/02 05:15:37;;;;;;;16.02;10.57;;;15.40;79.70;;;;;;5084878;28;20047;-76
2023/09/02 05:18:06;;;;;;;15.38;10.95;;;15.30;79.40;;;;;;5091751;28;20046;-76
2023/09/02 05:20:33;;;;;;;17.15;10.90;;;15.30;79.50;;;;;;5091554;28;20964;-76
2023/09/02 05:23:00;;;;;;;16.40;10.98;;;15.30;79.60;;;;;;5105699;27;20137;-76
2023/09/02 05:25:28;;;;;;;16.43;11.07;;;15.30;79.60;;;;;;5105355;27;20134;-76
2023/09/02 05:27:58;;;;;;;16.33;11.13;;;15.30;79.60;;;;;;5091449;28;20054;-76
2023/09/02 05:30:25;;;;;;;15.43;10.63;;;15.30;79.60;;;;;;5101882;27;20609;-76
2023/09/02 05:32:52;;;;;;;16.15;11.43;;;15.40;79.70;;;;;;5107851;27;20062;-76
2023/09/02 05:35:21;;;;;;;16.13;11.32;;;15.40;79.80;;;;;;5125651;27;21106;-76
2023/09/02 05:37:48;;;;;;;16.73;11.43;;;15.40;80.00;;;;;;5083573;28;20088;-76
2023/09/02 05:40:16;;;;;;;18.45;11.40;;;15.40;79.70;;;;;;5096347;27;20080;-75
2023/09/02 05:42:44;;;;;;;18.33;11.88;;;15.40;79.70;;;;;;5125757;27;20494;-76
2023/09/02 05:45:11;;;;;;;16.98;12.40;;;15.40;79.90;;;;;;5140590;27;20074;-76
2023/09/02 05:47:38;;;;;;;18.52;11.85;;;15.40;80.00;;;;;;5088205;27;20579;-76
2023/09/02 05:50:06;;;;;;;17.07;11.73;;;15.40;80.10;;;;;;5139556;27;20527;-76
2023/09/02 05:52:32;;;;;;;18.42;11.52;;;15.40;80.50;;;;;;5089641;27;20688;-76
2023/09/02 05:54:59;;;;;;;16.23;11.75;;;15.40;80.30;;;;;;5087929;27;20491;-76
2023/09/02 05:57:27;;;;;;;18.45;12.68;;;15.40;80.60;;;;;;5103241;27;20581;-76
2023/09/02 05:59:55;;;;;;;15.88;11.50;;;15.40;80.90;;;;;;5141863;27;20501;-76
2023/09/02 06:02:22;;;;;;;17.93;12.07;;;15.40;80.90;;;;;;5090835;28;20082;-76
2023/09/02 06:04:49;;;;;;;18.50;12.20;;;15.40;80.80;;;;;;5091299;27;20184;-76
2023/09/02 06:07:16;;;;;;;20.30;12.52;;;15.40;80.70;;;;;;5142310;27;20052;-76
2023/09/02 06:09:43;;;;;;;18.35;11.95;;;15.40;80.90;;;;;;5094151;27;20053;-76
2023/09/02 06:12:10;;;;;;;18.85;12.80;;;15.40;80.80;;;;;;5092988;27;20055;-76
2023/09/02 06:14:37;;;;;;;18.43;12.43;;;15.50;80.80;;;;;;5109432;27;20048;-76
2023/09/02 06:17:06;;;;;;;20.65;12.77;;;15.50;80.70;;;;;;5117004;27;20608;-76
2023/09/02 06:19:32;;;;;;;19.45;12.95;;;15.50;80.80;;;;;;5098479;27;21151;-76
2023/09/02 06:21:59;;;;;;;18.33;12.43;;;15.50;80.90;;;;;;5117754;27;20123;-76
2023/09/02 06:24:28;;;;;;;18.58;12.75;;;15.50;81.10;;;;;;5111819;27;20048;-76
2023/09/02 06:26:54;;;;;;;21.20;13.40;;;15.50;80.80;;;;;;5091780;27;20090;-76
2023/09/02 06:29:21;;;;;;;20.08;12.82;;;15.50;80.50;;;;;;5096914;27;20525;-76
2023/09/02 06:31:48;;;;;;;19.92;14.10;;;15.50;80.70;;;;;;5112391;27;20051;-75
2023/09/02 06:34:22;;;;;;;19.45;13.43;;;15.60;80.70;;;;;;5102531;27;20048;-76
2023/09/02 06:36:49;;;;;;;21.05;14.18;;;15.60;81.30;;;;;;5120388;27;20138;-75
2023/09/02 06:39:16;;;;;;;21.47;14.23;;;15.60;81.20;;;;;;5131330;27;20793;-75
2023/09/02 06:41:43;;;;;;;23.20;14.98;;;15.60;81.40;;;;;;5091937;27;20071;-75
2023/09/02 06:44:12;;;;;;;25.42;15.48;;;15.60;81.50;;;;;;5088389;27;20048;-76
2023/09/02 06:46:41;;;;;;;23.00;15.18;;;15.60;81.90;;;;;;5111151;27;20577;-76
2023/09/02 06:49:08;;;;;;;29.23;16.60;;;15.60;82.30;;;;;;5111018;27;20070;-75
2023/09/02 06:51:39;;;;;;;27.03;16.27;;;15.60;82.50;;;;;;5094877;27;20430;-76
2023/09/02 06:54:07;;;;;;;27.33;17.08;;;15.70;82.60;;;;;;5098812;27;20359;-76
2023/09/02 06:56:34;;;;;;;28.00;16.77;;;15.70;82.70;;;;;;5124824;27;20058;-76
2023/09/02 06:59:02;;;;;;;24.77;16.05;;;15.80;82.80;;;;;;5118356;27;20051;-75
2023/09/02 07:01:29;;;;;;;27.38;17.08;;;15.80;83.00;;;;;;5120604;27;20055;-75
2023/09/02 07:03:57;;;;;;;29.07;16.97;;;15.80;83.10;;;;;;5150376;27;20063;-75
2023/09/02 07:06:24;;;;;;;28.27;17.70;;;15.80;83.00;;;;;;5115809;27;20048;-76
2023/09/02 07:08:52;;;;;;;26.50;17.33;;;15.80;82.60;;;;;;5098318;27;20052;-75
2023/09/02 07:11:20;;;;;;;30.45;18.23;;;15.80;82.60;;;;;;5107212;27;20064;-75
2023/09/02 07:13:47;;;;;;;29.48;17.67;;;15.80;82.90;;;;;;5111914;27;20513;-75
2023/09/02 07:16:15;;;;;;;29.07;17.73;;;15.90;82.90;;;;;;5114490;27;20071;-76
2023/09/02 07:18:42;;;;;;;29.73;18.10;;;15.90;82.90;;;;;;5116604;27;20055;-75
2023/09/02 07:21:09;;;;;;;29.42;18.10;;;16.00;83.30;;;;;;5115846;27;20051;-73
2023/09/02 07:23:36;;;;;;;29.40;18.15;;;16.00;83.50;;;;;;5108090;27;20127;-75
2023/09/02 07:26:05;;;;;;;29.00;18.42;;;16.00;83.70;;;;;;5106589;27;20076;-75
2023/09/02 07:28:36;;;;;;;28.93;17.00;;;16.10;83.70;;;;;;5101004;27;20064;-75
2023/09/02 07:31:05;;;;;;;33.08;18.70;;;16.10;83.90;;;;;;5113752;27;20056;-75
2023/09/02 07:33:32;;;;;;;30.33;17.95;;;16.10;83.90;;;;;;5135823;27;20059;-75
2023/09/02 07:35:59;;;;;;;33.38;18.02;;;16.20;84.00;;;;;;5112126;27;20132;-75
2023/09/02 07:38:27;;;;;;;28.60;17.80;;;16.20;84.20;;;;;;5105212;27;20879;-75
2023/09/02 07:40:54;;;;;;;22.80;14.73;;;16.30;84.30;;;;;;5106123;27;20052;-76
2023/09/02 07:43:22;;;;;;;28.55;16.77;;;16.30;84.20;;;;;;5094586;27;20682;-75
2023/09/02 07:45:50;;;;;;;30.35;18.40;;;16.40;84.10;;;;;;5109943;27;20050;-75
2023/09/02 07:48:17;;;;;;;26.88;16.55;;;16.40;84.00;;;;;;5084475;27;20052;-75
2023/09/02 07:50:44;;;;;;;27.05;16.50;;;16.40;84.20;;;;;;5106916;27;20421;-75
2023/09/02 07:53:11;;;;;;;33.33;17.90;;;16.40;83.90;;;;;;5102743;27;20072;-75
2023/09/02 07:55:38;;;;;;;27.05;17.30;;;16.40;83.70;;;;;;5085438;28;20044;-75
2023/09/02 07:58:05;;;;;;;26.60;16.52;;;16.50;83.90;;;;;;5108767;27;20048;-75
2023/09/02 08:00:35;;;;;;;27.95;16.90;;;16.50;84.00;;;;;;5109071;27;20059;-75
2023/09/02 08:03:03;;;;;;;26.85;16.45;;;16.50;84.10;;;;;;5104628;27;20595;-75
2023/09/02 08:05:30;;;;;;;27.40;16.03;;;16.60;84.20;;;;;;5097591;27;20914;-76
2023/09/02 08:07:58;;;;;;;27.95;16.33;;;16.60;84.30;;;;;;5095503;27;20048;-75
2023/09/02 08:10:25;;;;;;;26.77;16.45;;;16.60;84.20;;;;;;5112405;27;20595;-75
2023/09/02 08:12:52;;;;;;;27.13;15.60;;;16.70;84.30;;;;;;5140948;27;20156;-75
2023/09/02 08:15:19;;;;;;;27.45;16.25;;;16.70;84.30;;;;;;5113954;27;20603;-75
2023/09/02 08:17:49;;;;;;;26.93;15.73;;;16.70;84.30;;;;;;5113809;27;20095;-75
2023/09/02 08:20:16;;;;;;;28.27;16.85;;;16.80;84.20;;;;;;5115336;27;20059;-75
2023/09/02 08:22:43;;;;;;;30.25;17.67;;;16.80;84.00;;;;;;5115170;27;20127;-75
2023/09/02 08:25:11;;;;;;;28.58;17.63;;;16.80;84.20;;;;;;5108426;27;20457;-75
2023/09/02 08:27:38;;;;;;;29.77;17.30;;;16.90;84.10;;;;;;5108470;27;20127;-75
2023/09/02 08:30:06;;;;;;;29.77;16.50;;;16.90;84.10;;;;;;5105201;27;20071;-76
2023/09/02 08:32:33;;;;;;;31.00;18.15;;;16.90;84.20;;;;;;5103047;27;20058;-75
2023/09/02 08:35:02;;;;;;;28.10;16.58;;;17.00;84.20;;;;;;5099712;27;20154;-75
2023/09/02 08:37:31;;;;;;;31.77;17.35;;;17.00;84.40;;;;;;5136195;27;20052;-75
2023/09/02 08:39:58;;;;;;;28.80;16.70;;;17.00;84.40;;;;;;5115108;27;20044;-74
2023/09/02 08:42:26;;;;;;;27.13;16.03;;;17.10;84.40;;;;;;5114950;27;20183;-74
2023/09/02 08:44:55;;;;;;;26.00;16.02;;;17.20;84.50;;;;;;5150967;27;20142;-74
2023/09/02 08:47:25;;;;;;;27.52;15.57;;;17.20;84.30;;;;;;5114330;27;20057;-74
2023/09/02 08:49:53;;;;;;;25.45;15.65;;;17.20;84.20;;;;;;5109509;27;20123;-74
2023/09/02 08:52:22;;;;;;;27.38;15.27;;;17.20;84.30;;;;;;5104262;27;20174;-74
2023/09/02 08:54:51;;;;;;;24.43;15.53;;;17.30;84.20;;;;;;5111080;27;20082;-74
2023/09/02 08:57:19;;;;;;;27.77;16.05;;;17.40;84.00;;;;;;5116567;27;20463;-75
2023/09/02 08:59:47;;;;;;;26.70;15.65;;;17.40;83.90;;;;;;5151506;27;20055;-75
2023/09/02 09:02:14;;;;;;;28.52;14.93;;;17.40;84.00;;;;;;5120294;27;20058;-74
2023/09/02 09:04:42;;;;;;;22.77;14.10;;;17.50;83.90;;;;;;5109984;27;20052;-74
2023/09/02 09:07:10;;;;;;;23.33;13.63;;;17.50;83.90;;;;;;5116104;27;20055;-74
2023/09/02 09:09:39;;;;;;;22.17;14.05;;;17.60;83.70;;;;;;5115324;27;20511;-74
2023/09/02 09:12:07;;;;;;;24.10;13.40;;;17.60;83.50;;;;;;5107772;27;20064;-74
2023/09/02 09:14:37;;;;;;;22.45;13.73;;;17.70;83.40;;;;;;5120196;27;20151;-74
2023/09/02 09:17:05;;;;;;;24.10;13.73;;;17.80;83.20;;;;;;5117561;27;20158;-74
2023/09/02 09:19:33;;;;;;;24.03;13.20;;;17.80;83.00;;;;;;5126319;27;20047;-74
2023/09/02 09:22:02;;;;;;;23.20;13.82;;;17.80;82.70;;;;;;5107863;27;20105;-75
2023/09/02 09:24:29;;;;;;;25.00;14.05;;;17.80;82.70;;;;;;5123135;27;20051;-75
2023/09/02 09:27:00;;;;;;;21.33;13.60;;;17.90;82.50;;;;;;5106002;27;20044;-74
2023/09/02 09:29:26;;;;;;;22.80;13.68;;;18.00;82.40;;;;;;5118684;27;20054;-74
2023/09/02 09:32:08;;;;;;;22.03;13.07;;;18.00;82.20;;;;;;5148577;27;20387;-74
2023/09/02 09:34:37;;;;;;;22.55;13.45;;;18.00;82.10;;;;;;5143273;27;20083;-75
2023/09/02 09:37:05;;;;;;;23.88;13.18;;;18.00;81.90;;;;;;5101873;27;20048;-75
2023/09/02 09:39:40;;;;;;;20.98;13.27;;;18.10;81.60;;;;;;5121469;27;20050;-75
2023/09/02 09:42:08;;;;;;;24.02;13.50;;;18.10;81.50;;;;;;5119241;27;20048;-75
2023/09/02 09:44:35;;;;;;;20.83;12.63;;;18.10;81.70;;;;;;5121203;27;20052;-76
2023/09/02 09:47:02;;;;;;;22.20;12.35;;;18.20;81.60;;;;;;5122198;27;20048;-75
2023/09/02 09:49:31;;;;;;;19.55;12.80;;;18.20;81.60;;;;;;5119974;27;20536;-75
2023/09/02 09:52:11;;;;;;;22.35;13.27;;;18.30;81.50;;;;;;5122687;27;20064;-74
2023/09/02 09:54:39;;;;;;;21.45;12.18;;;18.30;81.40;;;;;;5117034;27;20044;-75
2023/09/02 09:57:08;;;;;;;19.27;12.93;;;18.40;81.30;;;;;;5124617;27;20150;-74
2023/09/02 09:59:36;;;;;;;23.02;12.93;;;18.40;81.30;;;;;;5107077;27;20047;-74
2023/09/02 10:02:04;;;;;;;20.85;13.07;;;18.50;81.20;;;;;;5104246;27;20044;-74
2023/09/02 10:04:31;;;;;;;21.92;13.05;;;18.50;81.00;;;;;;5125892;27;20518;-75
2023/09/02 10:06:59;;;;;;;22.63;13.32;;;18.50;81.00;;;;;;5096985;27;20501;-74
2023/09/02 10:09:41;;;;;;;23.47;13.57;;;18.60;81.20;;;;;;5118363;27;20047;-75
2023/09/02 10:12:13;;;;;;;22.40;12.55;;;18.70;81.20;;;;;;5109993;27;20210;-74
2023/09/02 10:14:41;;;;;;;22.23;12.73;;;18.70;80.90;;;;;;5120448;27;20040;-75
2023/09/02 10:17:09;;;;;;;20.35;11.88;;;18.80;80.70;;;;;;5114558;27;20116;-74
2023/09/02 10:19:36;;;;;;;20.88;12.90;;;18.80;80.80;;;;;;5092199;27;20491;-75
2023/09/02 10:22:03;;;;;;;18.20;10.90;;;18.90;80.90;;;;;;5108202;27;20056;-75
2023/09/02 10:24:34;;;;;;;18.08;11.68;;;19.00;80.40;;;;;;5115852;27;20079;-74
2023/09/02 10:27:07;;;;;;;18.90;10.23;;;19.10;80.60;;;;;;5112703;27;20537;-74
2023/09/02 10:29:40;;;;;;;16.75;10.40;;;19.10;80.50;;;;;;5111826;27;20590;-74
2023/09/02 10:32:12;;;;;;;17.42;9.98;;;19.20;80.30;;;;;;5110668;27;20068;-74
2023/09/02 10:34:46;;;;;;;15.53;9.93;;;19.30;80.10;;;;;;5131980;27;20131;-74
2023/09/02 10:37:15;;;;;;;15.13;9.43;;;19.30;80.00;;;;;;5104296;27;20087;-73
2023/09/02 10:39:51;;;;;;;16.13;9.50;;;19.40;79.90;;;;;;5117864;27;20044;-74
2023/09/02 10:42:19;;;;;;;18.20;9.73;;;19.50;79.70;;;;;;5121831;27;20051;-74
2023/09/02 10:44:49;;;;;;;17.55;10.45;;;19.50;79.50;;;;;;5119673;27;20135;-74
2023/09/02 10:47:16;;;;;;;16.70;9.80;;;19.60;79.10;;;;;;5123137;27;20055;-74
2023/09/02 10:49:44;;;;;;;14.63;9.55;;;19.70;78.90;;;;;;5118001;27;20918;-74
2023/09/02 10:52:15;;;;;;;16.52;9.18;;;19.80;78.60;;;;;;5091427;27;20135;-75
2023/09/02 10:55:01;;;;;;;14.85;10.20;;;19.90;78.50;;;;;;5103808;27;20048;-74
2023/09/02 10:57:28;;;;;;;17.02;10.00;;;20.00;78.40;;;;;;5116669;27;20056;-75
2023/09/02 11:00:18;;;;;;;17.03;9.87;;;20.10;77.80;;;;;;5092717;27;20537;-74
2023/09/02 11:02:46;;;;;;;17.55;9.98;;;20.20;77.80;;;;;;5111058;27;20519;-75
2023/09/02 11:05:14;;;;;;;17.00;9.75;;;20.30;77.70;;;;;;5094296;27;20609;-75
2023/09/02 11:07:41;;;;;;;17.25;10.43;;;20.30;77.40;;;;;;5102005;27;20056;-75
2023/09/02 11:10:10;;;;;;;14.68;9.52;;;20.50;76.70;;;;;;5109895;27;20541;-75
2023/09/02 11:13:08;;;;;;;16.80;9.47;;;20.50;76.00;;;;;;5104142;27;20403;-75
2023/09/02 11:15:37;;;;;;;17.25;8.88;;;20.50;75.20;;;;;;5112701;27;20477;-74
2023/09/02 11:18:32;;;;;;;16.55;9.77;;;20.60;75.20;;;;;;5120549;27;20126;-75
2023/09/02 11:20:59;;;;;;;14.73;8.57;;;20.60;75.20;;;;;;5060151;27;20051;-75
2023/09/02 11:23:26;;;;;;;14.25;9.18;;;20.60;74.50;;;;;;5131875;27;20083;-75
2023/09/02 11:26:04;;;;;;;12.63;8.37;;;20.70;74.40;;;;;;5118684;27;20131;-75
2023/09/02 11:28:32;;;;;;;15.43;8.75;;;20.70;74.20;;;;;;5133780;27;20206;-75
2023/09/02 11:31:06;;;;;;;14.73;8.60;;;20.70;74.50;;;;;;5120698;27;20113;-75
2023/09/02 11:33:34;;;;;;;13.88;8.57;;;20.80;74.40;;;;;;5124340;27;20277;-75
2023/09/02 11:36:06;;;;;;;12.60;8.07;;;20.80;74.30;;;;;;5104787;27;20215;-74
2023/09/02 11:38:34;;;;;;;13.27;7.67;;;20.90;74.20;;;;;;5103110;27;20543;-74
2023/09/02 11:41:02;;;;;;;12.02;7.70;;;20.90;74.20;;;;;;5106631;27;20054;-75
2023/09/02 11:43:31;;;;;;;12.98;8.00;;;21.00;74.30;;;;;;5115512;27;20159;-75
2023/09/02 11:46:00;;;;;;;11.75;8.07;;;21.10;74.20;;;;;;5113062;27;20056;-74
2023/09/02 11:48:30;;;;;;;13.85;8.73;;;21.10;74.20;;;;;;5115997;27;20535;-75
2023/09/02 11:50:58;;;;;;;12.20;6.80;;;21.20;73.80;;;;;;5112752;27;21153;-75
2023/09/02 11:53:27;;;;;;;12.50;8.07;;;21.30;73.50;;;;;;5112927;27;20491;-75
2023/09/02 11:55:55;;;;;;;13.38;7.85;;;21.40;73.20;;;;;;5104562;27;20878;-75
2023/09/02 11:58:22;;;;;;;10.85;7.32;;;21.50;72.60;;;;;;5092223;28;20955;-75
2023/09/02 12:00:49;;;;;;;12.40;7.90;;;21.50;72.20;;;;;;5107226;27;20075;-75
2023/09/02 12:03:22;;;;;;;12.00;7.63;;;21.50;72.00;;;;;;5119820;27;20128;-74
2023/09/02 12:05:53;;;;;;;14.45;7.97;;;21.60;71.50;;;;;;5108880;27;20062;-75
2023/09/02 12:08:21;;;;;;;14.55;7.60;;;21.70;71.30;;;;;;5109860;28;20131;-75
2023/09/02 12:10:48;;;;;;;13.65;7.50;;;21.70;71.70;;;;;;5092604;27;20044;-75
2023/09/02 12:13:16;;;;;;;11.45;7.20;;;21.70;70.60;;;;;;5087652;28;20156;-75
2023/09/02 12:15:47;;;;;;;9.80;6.77;;;21.80;70.20;;;;;;5097681;27;20051;-74
2023/09/02 12:18:15;;;;;;;10.40;6.88;;;21.90;70.30;;;;;;5106340;27;20051;-75
2023/09/02 12:20:42;;;;;;;11.10;6.47;;;21.90;69.90;;;;;;5108861;27;20064;-75
2023/09/02 12:23:10;;;;;;;10.25;6.35;;;21.90;70.20;;;;;;5101992;27;20595;-75
2023/09/02 12:25:38;;;;;;;12.95;6.80;;;22.00;70.60;;;;;;5108427;28;20048;-75
2023/09/02 12:28:15;;;;;;;10.23;6.33;;;22.00;69.70;;;;;;5099328;27;20080;-75
2023/09/02 12:30:48;;;;;;;10.57;6.35;;;22.00;69.40;;;;;;5089859;27;20482;-75
2023/09/02 12:33:17;;;;;;;10.55;6.30;;;22.10;68.90;;;;;;5098098;27;20048;-75
2023/09/02 12:35:49;;;;;;;9.48;6.00;;;22.20;68.50;;;;;;5125659;27;20119;-75
2023/09/02 12:38:19;;;;;;;10.00;5.90;;;22.20;68.60;;;;;;5106994;27;20575;-75
2023/09/02 12:40:53;;;;;;;9.10;5.27;;;22.30;68.30;;;;;;5105694;27;20055;-74